sensor_id;sensor_type;location;lat;lon;timestamp;P1;durP1;ratioP1;P2;durP2;ratioP2
3465;SDS011;1747;48.884;9.160;2024-03-23T00:56:05;8.00;;;4.75;;
3465;SDS011;1747;48.884;9.160;2024-03-23T00:58:34;8.98;;;4.93;;
3465;SDS011;1747;48.884;9.160;2024-03-23T01:01:00;9.98;;;5.43;;
3465;SDS011;1747;48.884;9.160;2024-03-23T01:03:28;10.40;;;5.57;;
3465;SDS011;1747;48.884;9.160;2024-03-23T01:05:54;11.88;;;5.38;;
3465;SDS011;1747;48.884;9.160;2024-03-23T01:08:24;14.70;;;5.75;;
3465;SDS011;1747;48.884;9.160;2024-03-23T01:10:53;10.63;;;5.82;;
3465;SDS011;1747;48.884;9.160;2024-03-23T01:13:21;8.88;;;5.13;;
3465;SDS011;1747;48.884;9.160;2024-03-23T01:15:50;8.48;;;4.63;;
3465;SDS011;1747;48.884;9.160;2024-03-23T01:18:16;5.20;;;3.85;;
3465;SDS011;1747;48.884;9.160;2024-03-23T01:20:44;5.40;;;3.47;;
3465;SDS011;1747;48.884;9.160;2024-03-23T01:23:10;8.50;;;3.45;;
3465;SDS011;1747;48.884;9.160;2024-03-23T01:25:37;5.90;;;3.25;;
3465;SDS011;1747;48.884;9.160;2024-03-23T01:28:03;4.43;;;2.90;;
3465;SDS011;1747;48.884;9.160;2024-03-23T01:30:31;4.10;;;2.90;;
3465;SDS011;1747;48.884;9.160;2024-03-23T01:32:58;7.93;;;3.45;;
3465;SDS011;1747;48.884;9.160;2024-03-23T01:35:25;4.35;;;3.17;;
3465;SDS011;1747;48.884;9.160;2024-03-23T01:37:51;6.88;;;3.33;;
3465;SDS011;1747;48.884;9.160;2024-03-23T01:40:18;6.72;;;2.70;;
3465;SDS011;1747;48.884;9.160;2024-03-23T01:42:54;8.10;;;2.80;;
3465;SDS011;1747;48.884;9.160;2024-03-23T01:45:21;4.90;;;2.40;;
3465;SDS011;1747;48.884;9.160;2024-03-23T01:47:49;3.70;;;2.50;;
3465;SDS011;1747;48.884;9.160;2024-03-23T01:50:18;2.65;;;2.25;;
3465;SDS011;1747;48.884;9.160;2024-03-23T01:52:44;4.32;;;2.47;;
3465;SDS011;1747;48.884;9.160;2024-03-23T01:55:11;5.03;;;2.28;;
3465;SDS011;1747;48.884;9.160;2024-03-23T01:57:37;5.28;;;2.03;;
3465;SDS011;1747;48.884;9.160;2024-03-23T02:00:04;3.40;;;2.20;;
3465;SDS011;1747;48.884;9.160;2024-03-23T02:02:31;3.65;;;2.10;;
3465;SDS011;1747;48.884;9.160;2024-03-23T02:04:58;2.78;;;2.33;;
3465;SDS011;1747;48.884;9.160;2024-03-23T02:07:25;4.22;;;1.90;;
3465;SDS011;1747;48.884;9.160;2024-03-23T02:09:52;5.63;;;2.05;;
3465;SDS011;1747;48.884;9.160;2024-03-23T02:12:18;3.85;;;2.00;;
3465;SDS011;1747;48.884;9.160;2024-03-23T02:14:47;3.20;;;2.25;;
3465;SDS011;1747;48.884;9.160;2024-03-23T02:17:13;5.10;;;2.72;;
3465;SDS011;1747;48.884;9.160;2024-03-23T02:19:40;5.55;;;2.47;;
3465;SDS011;1747;48.884;9.160;2024-03-23T02:22:05;2.10;;;1.85;;
3465;SDS011;1747;48.884;9.160;2024-03-23T02:24:33;4.43;;;2.05;;
3465;SDS011;1747;48.884;9.160;2024-03-23T02:27:00;2.85;;;2.00;;
3465;SDS011;1747;48.884;9.160;2024-03-23T02:29:28;3.92;;;2.30;;
3465;SDS011;1747;48.884;9.160;2024-03-23T02:31:54;2.67;;;1.98;;
3465;SDS011;1747;48.884;9.160;2024-03-23T02:34:20;3.78;;;2.08;;
3465;SDS011;1747;48.884;9.160;2024-03-23T02:36:47;4.20;;;2.08;;
3465;SDS011;1747;48.884;9.160;2024-03-23T02:39:13;4.13;;;2.50;;
3465;SDS011;1747;48.884;9.160;2024-03-23T02:41:41;3.53;;;2.05;;
3465;SDS011;1747;48.884;9.160;2024-03-23T02:44:07;2.95;;;2.00;;
3465;SDS011;1747;48.884;9.160;2024-03-23T02:46:36;2.28;;;1.90;;
3465;SDS011;1747;48.884;9.160;2024-03-23T02:49:02;2.60;;;2.03;;
3465;SDS011;1747;48.884;9.160;2024-03-23T02:51:29;2.85;;;2.10;;
3465;SDS011;1747;48.884;9.160;2024-03-23T02:53:55;3.38;;;2.53;;
3465;SDS011;1747;48.884;9.160;2024-03-23T02:56:22;7.18;;;2.22;;
3465;SDS011;1747;48.884;9.160;2024-03-23T02:58:49;4.80;;;2.15;;
3465;SDS011;1747;48.884;9.160;2024-03-23T03:01:16;3.58;;;2.30;;
3465;SDS011;1747;48.884;9.160;2024-03-23T03:03:42;3.65;;;2.58;;
3465;SDS011;1747;48.884;9.160;2024-03-23T03:06:09;3.13;;;2.30;;
3465;SDS011;1747;48.884;9.160;2024-03-23T03:08:35;2.67;;;1.77;;
3465;SDS011;1747;48.884;9.160;2024-03-23T03:11:02;4.00;;;2.35;;
3465;SDS011;1747;48.884;9.160;2024-03-23T03:13:28;2.80;;;2.53;;
3465;SDS011;1747;48.884;9.160;2024-03-23T03:15:56;3.47;;;2.33;;
3465;SDS011;1747;48.884;9.160;2024-03-23T03:18:23;3.85;;;2.65;;
3465;SDS011;1747;48.884;9.160;2024-03-23T03:20:53;3.25;;;2.25;;
3465;SDS011;1747;48.884;9.160;2024-03-23T03:23:20;4.22;;;2.50;;
3465;SDS011;1747;48.884;9.160;2024-03-23T03:25:46;4.22;;;2.67;;
3465;SDS011;1747;48.884;9.160;2024-03-23T03:28:12;3.78;;;2.40;;
3465;SDS011;1747;48.884;9.160;2024-03-23T03:30:39;6.95;;;2.60;;
3465;SDS011;1747;48.884;9.160;2024-03-23T03:33:06;3.45;;;2.63;;
3465;SDS011;1747;48.884;9.160;2024-03-23T03:35:33;4.60;;;2.83;;
3465;SDS011;1747;48.884;9.160;2024-03-23T03:37:59;3.53;;;2.50;;
3465;SDS011;1747;48.884;9.160;2024-03-23T03:40:26;4.15;;;2.85;;
3465;SDS011;1747;48.884;9.160;2024-03-23T03:42:51;4.82;;;2.70;;
3465;SDS011;1747;48.884;9.160;2024-03-23T03:45:18;3.55;;;2.65;;
3465;SDS011;1747;48.884;9.160;2024-03-23T03:47:44;4.38;;;2.75;;
3465;SDS011;1747;48.884;9.160;2024-03-23T03:50:12;3.95;;;2.60;;
3465;SDS011;1747;48.884;9.160;2024-03-23T03:52:38;4.10;;;2.70;;
3465;SDS011;1747;48.884;9.160;2024-03-23T03:55:06;5.03;;;2.58;;
3465;SDS011;1747;48.884;9.160;2024-03-23T03:57:38;3.80;;;2.67;;
3465;SDS011;1747;48.884;9.160;2024-03-23T04:00:05;3.53;;;2.72;;
3465;SDS011;1747;48.884;9.160;2024-03-23T04:02:32;3.42;;;2.33;;
3465;SDS011;1747;48.884;9.160;2024-03-23T04:04:59;3.97;;;2.60;;
3465;SDS011;1747;48.884;9.160;2024-03-23T04:07:26;6.15;;;2.65;;
3465;SDS011;1747;48.884;9.160;2024-03-23T04:09:53;5.13;;;2.70;;
3465;SDS011;1747;48.884;9.160;2024-03-23T04:12:18;2.67;;;2.22;;
3465;SDS011;1747;48.884;9.160;2024-03-23T04:14:45;4.38;;;2.78;;
3465;SDS011;1747;48.884;9.160;2024-03-23T04:17:11;4.60;;;2.35;;
3465;SDS011;1747;48.884;9.160;2024-03-23T04:19:38;5.63;;;2.85;;
3465;SDS011;1747;48.884;9.160;2024-03-23T04:22:04;3.75;;;2.45;;
3465;SDS011;1747;48.884;9.160;2024-03-23T04:24:32;3.85;;;2.70;;
3465;SDS011;1747;48.884;9.160;2024-03-23T04:26:58;4.60;;;2.90;;
3465;SDS011;1747;48.884;9.160;2024-03-23T04:29:25;4.97;;;3.35;;
3465;SDS011;1747;48.884;9.160;2024-03-23T04:31:52;6.93;;;3.33;;
3465;SDS011;1747;48.884;9.160;2024-03-23T04:34:18;6.63;;;3.38;;
3465;SDS011;1747;48.884;9.160;2024-03-23T04:36:44;6.35;;;4.35;;
3465;SDS011;1747;48.884;9.160;2024-03-23T04:39:11;7.68;;;4.85;;
3465;SDS011;1747;48.884;9.160;2024-03-23T04:41:39;8.93;;;5.85;;
3465;SDS011;1747;48.884;9.160;2024-03-23T04:44:06;13.32;;;6.68;;
3465;SDS011;1747;48.884;9.160;2024-03-23T04:46:33;11.88;;;7.70;;
3465;SDS011;1747;48.884;9.160;2024-03-23T04:48:59;13.15;;;8.15;;
3465;SDS011;1747;48.884;9.160;2024-03-23T04:51:26;13.88;;;8.75;;
3465;SDS011;1747;48.884;9.160;2024-03-23T04:53:53;14.20;;;9.30;;
3465;SDS011;1747;48.884;9.160;2024-03-23T04:56:20;15.50;;;9.63;;
3465;SDS011;1747;48.884;9.160;2024-03-23T04:58:48;14.93;;;9.23;;
3465;SDS011;1747;48.884;9.160;2024-03-23T05:01:14;13.88;;;9.63;;
3465;SDS011;1747;48.884;9.160;2024-03-23T05:03:41;18.05;;;9.98;;
3465;SDS011;1747;48.884;9.160;2024-03-23T05:06:07;19.08;;;9.52;;
3465;SDS011;1747;48.884;9.160;2024-03-23T05:08:34;19.13;;;10.18;;
3465;SDS011;1747;48.884;9.160;2024-03-23T05:10:59;17.27;;;10.25;;
3465;SDS011;1747;48.884;9.160;2024-03-23T05:13:26;16.60;;;9.68;;
3465;SDS011;1747;48.884;9.160;2024-03-23T05:15:54;13.40;;;9.05;;
3465;SDS011;1747;48.884;9.160;2024-03-23T05:18:22;15.10;;;9.10;;
3465;SDS011;1747;48.884;9.160;2024-03-23T05:20:55;13.77;;;9.07;;
3465;SDS011;1747;48.884;9.160;2024-03-23T05:23:22;16.73;;;10.25;;
3465;SDS011;1747;48.884;9.160;2024-03-23T05:25:48;15.27;;;9.90;;
3465;SDS011;1747;48.884;9.160;2024-03-23T05:28:15;14.32;;;8.38;;
3465;SDS011;1747;48.884;9.160;2024-03-23T05:30:41;13.90;;;8.95;;
3465;SDS011;1747;48.884;9.160;2024-03-23T05:33:09;13.35;;;8.20;;
3465;SDS011;1747;48.884;9.160;2024-03-23T05:35:35;13.20;;;7.97;;
3465;SDS011;1747;48.884;9.160;2024-03-23T05:38:02;13.13;;;7.50;;
3465;SDS011;1747;48.884;9.160;2024-03-23T05:40:28;11.25;;;7.63;;
3465;SDS011;1747;48.884;9.160;2024-03-23T05:42:55;13.60;;;7.68;;
3465;SDS011;1747;48.884;9.160;2024-03-23T05:45:21;11.45;;;6.18;;
3465;SDS011;1747;48.884;9.160;2024-03-23T05:47:48;8.95;;;6.28;;
3465;SDS011;1747;48.884;9.160;2024-03-23T05:50:16;12.77;;;5.97;;
3465;SDS011;1747;48.884;9.160;2024-03-23T05:52:43;10.63;;;5.63;;
3465;SDS011;1747;48.884;9.160;2024-03-23T05:55:11;8.40;;;4.60;;
3465;SDS011;1747;48.884;9.160;2024-03-23T05:57:38;8.00;;;4.82;;
3465;SDS011;1747;48.884;9.160;2024-03-23T06:00:05;7.05;;;4.50;;
3465;SDS011;1747;48.884;9.160;2024-03-23T06:02:40;8.35;;;4.63;;
3465;SDS011;1747;48.884;9.160;2024-03-23T06:05:07;8.20;;;4.25;;
3465;SDS011;1747;48.884;9.160;2024-03-23T06:07:35;12.43;;;4.63;;
3465;SDS011;1747;48.884;9.160;2024-03-23T06:10:01;7.95;;;4.90;;
3465;SDS011;1747;48.884;9.160;2024-03-23T06:12:28;8.25;;;5.40;;
3465;SDS011;1747;48.884;9.160;2024-03-23T06:14:53;8.35;;;5.28;;
3465;SDS011;1747;48.884;9.160;2024-03-23T06:17:20;8.88;;;5.55;;
3465;SDS011;1747;48.884;9.160;2024-03-23T06:19:46;8.05;;;4.20;;
3465;SDS011;1747;48.884;9.160;2024-03-23T06:22:14;7.85;;;4.15;;
3465;SDS011;1747;48.884;9.160;2024-03-23T06:24:41;9.27;;;3.75;;
3465;SDS011;1747;48.884;9.160;2024-03-23T06:27:08;6.82;;;3.60;;
3465;SDS011;1747;48.884;9.160;2024-03-23T06:29:34;5.85;;;3.45;;
3465;SDS011;1747;48.884;9.160;2024-03-23T06:32:01;5.95;;;3.08;;
3465;SDS011;1747;48.884;9.160;2024-03-23T06:34:28;5.45;;;2.90;;
3465;SDS011;1747;48.884;9.160;2024-03-23T06:36:55;3.97;;;2.55;;
3465;SDS011;1747;48.884;9.160;2024-03-23T06:39:21;6.10;;;2.25;;
3465;SDS011;1747;48.884;9.160;2024-03-23T06:41:52;3.72;;;2.30;;
3465;SDS011;1747;48.884;9.160;2024-03-23T06:44:19;4.38;;;1.65;;
3465;SDS011;1747;48.884;9.160;2024-03-23T06:46:46;2.30;;;1.38;;
3465;SDS011;1747;48.884;9.160;2024-03-23T06:49:13;2.00;;;1.25;;
3465;SDS011;1747;48.884;9.160;2024-03-23T06:51:40;2.20;;;1.60;;
3465;SDS011;1747;48.884;9.160;2024-03-23T06:54:06;4.50;;;1.42;;
3465;SDS011;1747;48.884;9.160;2024-03-23T06:56:33;1.92;;;1.15;;
3465;SDS011;1747;48.884;9.160;2024-03-23T06:59:01;2.25;;;0.85;;
3465;SDS011;1747;48.884;9.160;2024-03-23T07:01:28;0.90;;;0.88;;
3465;SDS011;1747;48.884;9.160;2024-03-23T07:03:54;1.02;;;0.85;;
3465;SDS011;1747;48.884;9.160;2024-03-23T07:06:21;0.80;;;0.70;;
3465;SDS011;1747;48.884;9.160;2024-03-23T07:08:47;3.85;;;0.80;;
3465;SDS011;1747;48.884;9.160;2024-03-23T07:11:18;0.80;;;0.77;;
3465;SDS011;1747;48.884;9.160;2024-03-23T07:13:45;0.80;;;0.63;;
3465;SDS011;1747;48.884;9.160;2024-03-23T07:16:15;2.35;;;0.90;;
3465;SDS011;1747;48.884;9.160;2024-03-23T07:18:43;0.68;;;0.63;;
3465;SDS011;1747;48.884;9.160;2024-03-23T07:21:10;1.02;;;0.73;;
3465;SDS011;1747;48.884;9.160;2024-03-23T07:23:36;0.60;;;0.60;;
3465;SDS011;1747;48.884;9.160;2024-03-23T07:26:07;1.13;;;0.73;;
3465;SDS011;1747;48.884;9.160;2024-03-23T07:28:33;1.35;;;0.55;;
3465;SDS011;1747;48.884;9.160;2024-03-23T07:31:04;0.60;;;0.52;;
3465;SDS011;1747;48.884;9.160;2024-03-23T07:33:33;0.70;;;0.60;;
3465;SDS011;1747;48.884;9.160;2024-03-23T07:35:59;0.77;;;0.70;;
3465;SDS011;1747;48.884;9.160;2024-03-23T07:38:26;1.13;;;0.90;;
3465;SDS011;1747;48.884;9.160;2024-03-23T07:41:02;0.73;;;0.68;;
3465;SDS011;1747;48.884;9.160;2024-03-23T07:43:28;1.73;;;0.80;;
3465;SDS011;1747;48.884;9.160;2024-03-23T07:45:55;1.70;;;0.77;;
3465;SDS011;1747;48.884;9.160;2024-03-23T07:48:21;1.50;;;0.68;;
3465;SDS011;1747;48.884;9.160;2024-03-23T07:50:57;1.55;;;0.68;;
3465;SDS011;1747;48.884;9.160;2024-03-23T07:53:23;1.00;;;0.90;;
3465;SDS011;1747;48.884;9.160;2024-03-23T07:55:56;3.90;;;1.10;;
3465;SDS011;1747;48.884;9.160;2024-03-23T07:58:24;0.90;;;0.80;;
3465;SDS011;1747;48.884;9.160;2024-03-23T08:00:50;1.23;;;0.80;;
3465;SDS011;1747;48.884;9.160;2024-03-23T08:03:17;1.23;;;0.80;;
3465;SDS011;1747;48.884;9.160;2024-03-23T08:05:43;0.88;;;0.70;;
3465;SDS011;1747;48.884;9.160;2024-03-23T08:08:11;2.58;;;0.80;;
3465;SDS011;1747;48.884;9.160;2024-03-23T08:10:37;0.55;;;0.55;;
3465;SDS011;1747;48.884;9.160;2024-03-23T08:13:14;0.50;;;0.40;;
3465;SDS011;1747;48.884;9.160;2024-03-23T08:15:39;0.93;;;0.45;;
3465;SDS011;1747;48.884;9.160;2024-03-23T08:18:06;0.70;;;0.52;;
3465;SDS011;1747;48.884;9.160;2024-03-23T08:20:32;1.58;;;0.95;;
3465;SDS011;1747;48.884;9.160;2024-03-23T08:22:59;1.00;;;0.90;;
3465;SDS011;1747;48.884;9.160;2024-03-23T08:25:26;3.00;;;1.08;;
3465;SDS011;1747;48.884;9.160;2024-03-23T08:27:53;0.80;;;0.50;;
3465;SDS011;1747;48.884;9.160;2024-03-23T08:30:19;0.38;;;0.38;;
3465;SDS011;1747;48.884;9.160;2024-03-23T08:33:10;1.33;;;0.57;;
3465;SDS011;1747;48.884;9.160;2024-03-23T08:35:36;0.40;;;0.40;;
3465;SDS011;1747;48.884;9.160;2024-03-23T08:38:03;1.40;;;0.50;;
3465;SDS011;1747;48.884;9.160;2024-03-23T08:40:30;1.55;;;0.60;;
3465;SDS011;1747;48.884;9.160;2024-03-23T08:42:57;2.85;;;1.25;;
3465;SDS011;1747;48.884;9.160;2024-03-23T08:45:24;1.38;;;0.90;;
3465;SDS011;1747;48.884;9.160;2024-03-23T08:47:51;1.98;;;1.30;;
3465;SDS011;1747;48.884;9.160;2024-03-23T08:50:17;2.58;;;0.90;;
3465;SDS011;1747;48.884;9.160;2024-03-23T08:52:43;1.15;;;0.70;;
3465;SDS011;1747;48.884;9.160;2024-03-23T08:55:09;4.47;;;0.63;;
3465;SDS011;1747;48.884;9.160;2024-03-23T08:57:37;1.17;;;1.00;;
3465;SDS011;1747;48.884;9.160;2024-03-23T09:00:04;3.05;;;0.90;;
3465;SDS011;1747;48.884;9.160;2024-03-23T09:02:34;3.50;;;1.13;;
3465;SDS011;1747;48.884;9.160;2024-03-23T09:04:59;1.33;;;0.95;;
3465;SDS011;1747;48.884;9.160;2024-03-23T09:07:29;3.33;;;1.30;;
3465;SDS011;1747;48.884;9.160;2024-03-23T09:09:55;2.17;;;1.00;;
3465;SDS011;1747;48.884;9.160;2024-03-23T09:12:25;3.25;;;1.42;;
3465;SDS011;1747;48.884;9.160;2024-03-23T09:14:52;2.53;;;1.40;;
3465;SDS011;1747;48.884;9.160;2024-03-23T09:17:19;3.70;;;1.63;;
3465;SDS011;1747;48.884;9.160;2024-03-23T09:19:45;3.35;;;1.40;;
3465;SDS011;1747;48.884;9.160;2024-03-23T09:22:12;5.97;;;1.80;;
3465;SDS011;1747;48.884;9.160;2024-03-23T09:24:38;9.77;;;2.92;;
3465;SDS011;1747;48.884;9.160;2024-03-23T09:27:07;7.35;;;2.42;;
3465;SDS011;1747;48.884;9.160;2024-03-23T09:29:34;3.58;;;2.10;;
3465;SDS011;1747;48.884;9.160;2024-03-23T09:32:03;5.00;;;2.15;;
3465;SDS011;1747;48.884;9.160;2024-03-23T09:34:29;3.63;;;1.83;;
3465;SDS011;1747;48.884;9.160;2024-03-23T09:36:56;6.93;;;2.40;;
3465;SDS011;1747;48.884;9.160;2024-03-23T09:39:22;8.63;;;2.47;;
3465;SDS011;1747;48.884;9.160;2024-03-23T09:41:49;6.53;;;2.25;;
3465;SDS011;1747;48.884;9.160;2024-03-23T09:44:15;7.30;;;2.30;;
3465;SDS011;1747;48.884;9.160;2024-03-23T09:46:42;5.43;;;2.10;;
3465;SDS011;1747;48.884;9.160;2024-03-23T09:49:09;4.60;;;2.00;;
3465;SDS011;1747;48.884;9.160;2024-03-23T09:51:36;6.40;;;2.13;;
3465;SDS011;1747;48.884;9.160;2024-03-23T09:54:02;5.28;;;2.13;;
3465;SDS011;1747;48.884;9.160;2024-03-23T09:56:29;5.03;;;2.45;;
3465;SDS011;1747;48.884;9.160;2024-03-23T09:59:01;7.97;;;2.40;;
3465;SDS011;1747;48.884;9.160;2024-03-23T10:01:29;11.18;;;2.83;;
3465;SDS011;1747;48.884;9.160;2024-03-23T10:03:55;5.35;;;2.10;;
3465;SDS011;1747;48.884;9.160;2024-03-23T10:06:23;5.40;;;2.08;;
3465;SDS011;1747;48.884;9.160;2024-03-23T10:08:50;7.05;;;3.20;;
3465;SDS011;1747;48.884;9.160;2024-03-23T10:11:18;5.60;;;2.63;;
3465;SDS011;1747;48.884;9.160;2024-03-23T10:13:44;6.20;;;2.28;;
3465;SDS011;1747;48.884;9.160;2024-03-23T10:16:12;4.25;;;1.88;;
3465;SDS011;1747;48.884;9.160;2024-03-23T10:18:46;9.68;;;3.53;;
3465;SDS011;1747;48.884;9.160;2024-03-23T10:21:13;7.20;;;2.50;;
3465;SDS011;1747;48.884;9.160;2024-03-23T10:23:42;8.07;;;2.45;;
3465;SDS011;1747;48.884;9.160;2024-03-23T10:26:13;6.40;;;2.72;;
3465;SDS011;1747;48.884;9.160;2024-03-23T10:28:52;5.90;;;2.30;;
3465;SDS011;1747;48.884;9.160;2024-03-23T10:31:22;5.03;;;2.17;;
3465;SDS011;1747;48.884;9.160;2024-03-23T10:33:48;5.47;;;2.20;;
3465;SDS011;1747;48.884;9.160;2024-03-23T10:36:19;3.92;;;2.20;;
3465;SDS011;1747;48.884;9.160;2024-03-23T10:38:47;6.22;;;2.35;;
3465;SDS011;1747;48.884;9.160;2024-03-23T10:41:15;6.13;;;2.20;;
3465;SDS011;1747;48.884;9.160;2024-03-23T10:43:42;7.78;;;2.15;;
3465;SDS011;1747;48.884;9.160;2024-03-23T10:46:12;8.57;;;2.40;;
3465;SDS011;1747;48.884;9.160;2024-03-23T10:48:38;8.70;;;2.75;;
3465;SDS011;1747;48.884;9.160;2024-03-23T10:51:05;8.68;;;3.15;;
3465;SDS011;1747;48.884;9.160;2024-03-23T10:53:33;10.38;;;3.05;;
3465;SDS011;1747;48.884;9.160;2024-03-23T10:56:03;10.68;;;2.63;;
3465;SDS011;1747;48.884;9.160;2024-03-23T10:58:31;11.50;;;3.40;;
3465;SDS011;1747;48.884;9.160;2024-03-23T11:01:02;7.57;;;3.20;;
3465;SDS011;1747;48.884;9.160;2024-03-23T11:03:29;7.55;;;3.22;;
3465;SDS011;1747;48.884;9.160;2024-03-23T11:05:57;8.68;;;3.42;;
3465;SDS011;1747;48.884;9.160;2024-03-23T11:08:30;11.15;;;3.58;;
3465;SDS011;1747;48.884;9.160;2024-03-23T11:11:15;10.10;;;2.85;;
3465;SDS011;1747;48.884;9.160;2024-03-23T11:13:43;6.18;;;2.92;;
3465;SDS011;1747;48.884;9.160;2024-03-23T11:16:14;6.70;;;3.20;;
3465;SDS011;1747;48.884;9.160;2024-03-23T11:18:41;6.50;;;2.33;;
3465;SDS011;1747;48.884;9.160;2024-03-23T11:21:08;5.20;;;2.50;;
3465;SDS011;1747;48.884;9.160;2024-03-23T11:23:34;4.93;;;2.63;;
3465;SDS011;1747;48.884;9.160;2024-03-23T11:26:01;7.63;;;2.60;;
3465;SDS011;1747;48.884;9.160;2024-03-23T11:28:29;5.50;;;2.83;;
3465;SDS011;1747;48.884;9.160;2024-03-23T11:30:56;5.05;;;2.97;;
3465;SDS011;1747;48.884;9.160;2024-03-23T11:33:22;5.82;;;2.63;;
3465;SDS011;1747;48.884;9.160;2024-03-23T11:35:49;7.50;;;3.25;;
3465;SDS011;1747;48.884;9.160;2024-03-23T11:38:17;4.38;;;2.95;;
3465;SDS011;1747;48.884;9.160;2024-03-23T11:40:45;4.82;;;2.80;;
3465;SDS011;1747;48.884;9.160;2024-03-23T11:43:13;7.78;;;2.50;;
3465;SDS011;1747;48.884;9.160;2024-03-23T11:45:42;6.18;;;2.35;;
3465;SDS011;1747;48.884;9.160;2024-03-23T11:48:10;4.50;;;2.38;;
3465;SDS011;1747;48.884;9.160;2024-03-23T11:50:38;5.15;;;2.50;;
3465;SDS011;1747;48.884;9.160;2024-03-23T11:53:12;8.57;;;2.60;;
3465;SDS011;1747;48.884;9.160;2024-03-23T11:55:42;4.47;;;2.47;;
3465;SDS011;1747;48.884;9.160;2024-03-23T11:58:12;4.85;;;2.42;;
3465;SDS011;1747;48.884;9.160;2024-03-23T12:00:39;4.07;;;2.00;;
3465;SDS011;1747;48.884;9.160;2024-03-23T12:03:06;5.80;;;2.55;;
3465;SDS011;1747;48.884;9.160;2024-03-23T12:05:35;4.85;;;2.10;;
3465;SDS011;1747;48.884;9.160;2024-03-23T12:08:16;5.55;;;2.10;;
3465;SDS011;1747;48.884;9.160;2024-03-23T12:10:48;5.80;;;1.80;;
3465;SDS011;1747;48.884;9.160;2024-03-23T12:13:16;5.00;;;1.60;;
3465;SDS011;1747;48.884;9.160;2024-03-23T12:15:43;4.28;;;1.38;;
3465;SDS011;1747;48.884;9.160;2024-03-23T12:18:11;4.15;;;1.48;;
3465;SDS011;1747;48.884;9.160;2024-03-23T12:20:39;6.15;;;1.27;;
3465;SDS011;1747;48.884;9.160;2024-03-23T12:23:06;6.88;;;1.48;;
3465;SDS011;1747;48.884;9.160;2024-03-23T12:25:34;5.53;;;2.05;;
3465;SDS011;1747;48.884;9.160;2024-03-23T12:28:00;8.45;;;1.83;;
3465;SDS011;1747;48.884;9.160;2024-03-23T12:30:27;4.05;;;1.70;;
3465;SDS011;1747;48.884;9.160;2024-03-23T12:32:53;5.40;;;1.52;;
3465;SDS011;1747;48.884;9.160;2024-03-23T12:35:22;9.68;;;1.50;;
3465;SDS011;1747;48.884;9.160;2024-03-23T12:37:48;5.90;;;1.88;;
3465;SDS011;1747;48.884;9.160;2024-03-23T12:40:15;5.72;;;1.40;;
3465;SDS011;1747;48.884;9.160;2024-03-23T12:42:41;5.07;;;1.75;;
3465;SDS011;1747;48.884;9.160;2024-03-23T12:45:08;9.15;;;2.10;;
3465;SDS011;1747;48.884;9.160;2024-03-23T12:47:34;6.25;;;2.08;;
3465;SDS011;1747;48.884;9.160;2024-03-23T12:50:01;3.42;;;1.70;;
3465;SDS011;1747;48.884;9.160;2024-03-23T12:52:28;4.95;;;1.67;;
3465;SDS011;1747;48.884;9.160;2024-03-23T12:54:55;5.50;;;1.50;;
3465;SDS011;1747;48.884;9.160;2024-03-23T12:57:22;6.70;;;2.08;;
3465;SDS011;1747;48.884;9.160;2024-03-23T12:59:50;6.22;;;1.88;;
3465;SDS011;1747;48.884;9.160;2024-03-23T13:02:16;4.32;;;1.65;;
3465;SDS011;1747;48.884;9.160;2024-03-23T13:04:45;7.30;;;1.40;;
3465;SDS011;1747;48.884;9.160;2024-03-23T13:07:11;6.30;;;1.80;;
3465;SDS011;1747;48.884;9.160;2024-03-23T13:09:40;4.78;;;2.05;;
3465;SDS011;1747;48.884;9.160;2024-03-23T13:12:06;5.15;;;1.77;;
3465;SDS011;1747;48.884;9.160;2024-03-23T13:14:33;5.40;;;2.03;;
3465;SDS011;1747;48.884;9.160;2024-03-23T13:16:59;5.15;;;1.60;;
3465;SDS011;1747;48.884;9.160;2024-03-23T13:19:27;5.22;;;1.90;;
3465;SDS011;1747;48.884;9.160;2024-03-23T13:21:55;6.13;;;1.83;;
3465;SDS011;1747;48.884;9.160;2024-03-23T13:24:22;4.65;;;1.70;;
3465;SDS011;1747;48.884;9.160;2024-03-23T13:26:50;4.20;;;1.67;;
3465;SDS011;1747;48.884;9.160;2024-03-23T13:29:18;4.15;;;1.50;;
3465;SDS011;1747;48.884;9.160;2024-03-23T13:31:44;8.82;;;1.80;;
3465;SDS011;1747;48.884;9.160;2024-03-23T13:34:11;8.85;;;1.90;;
3465;SDS011;1747;48.884;9.160;2024-03-23T13:36:39;6.50;;;1.95;;
3465;SDS011;1747;48.884;9.160;2024-03-23T13:39:06;6.63;;;1.60;;
3465;SDS011;1747;48.884;9.160;2024-03-23T13:41:37;5.03;;;1.60;;
3465;SDS011;1747;48.884;9.160;2024-03-23T13:44:06;7.93;;;1.50;;
3465;SDS011;1747;48.884;9.160;2024-03-23T13:46:32;6.15;;;1.42;;
3465;SDS011;1747;48.884;9.160;2024-03-23T13:48:59;4.35;;;1.60;;
3465;SDS011;1747;48.884;9.160;2024-03-23T13:51:25;5.75;;;1.20;;
3465;SDS011;1747;48.884;9.160;2024-03-23T13:53:53;6.30;;;1.50;;
3465;SDS011;1747;48.884;9.160;2024-03-23T13:56:19;4.57;;;1.02;;
3465;SDS011;1747;48.884;9.160;2024-03-23T13:58:46;4.57;;;0.93;;
3465;SDS011;1747;48.884;9.160;2024-03-23T14:01:16;2.10;;;0.82;;
3465;SDS011;1747;48.884;9.160;2024-03-23T14:03:43;2.05;;;0.80;;
3465;SDS011;1747;48.884;9.160;2024-03-23T14:06:09;4.28;;;1.08;;
3465;SDS011;1747;48.884;9.160;2024-03-23T14:08:37;7.18;;;1.23;;
3465;SDS011;1747;48.884;9.160;2024-03-23T14:11:04;3.80;;;1.05;;
3465;SDS011;1747;48.884;9.160;2024-03-23T14:13:31;5.57;;;1.30;;
3465;SDS011;1747;48.884;9.160;2024-03-23T14:15:57;6.57;;;1.15;;
3465;SDS011;1747;48.884;9.160;2024-03-23T14:18:26;3.80;;;0.88;;
3465;SDS011;1747;48.884;9.160;2024-03-23T14:20:55;4.55;;;1.10;;
3465;SDS011;1747;48.884;9.160;2024-03-23T14:23:24;5.45;;;1.40;;
3465;SDS011;1747;48.884;9.160;2024-03-23T14:25:52;1.55;;;0.85;;
3465;SDS011;1747;48.884;9.160;2024-03-23T14:28:20;2.78;;;1.02;;
3465;SDS011;1747;48.884;9.160;2024-03-23T14:30:47;5.13;;;1.48;;
3465;SDS011;1747;48.884;9.160;2024-03-23T14:33:14;2.33;;;1.25;;
3465;SDS011;1747;48.884;9.160;2024-03-23T14:35:42;3.17;;;1.20;;
3465;SDS011;1747;48.884;9.160;2024-03-23T14:38:08;2.10;;;0.90;;
3465;SDS011;1747;48.884;9.160;2024-03-23T14:40:34;2.08;;;0.93;;
3465;SDS011;1747;48.884;9.160;2024-03-23T14:43:01;5.03;;;1.02;;
3465;SDS011;1747;48.884;9.160;2024-03-23T14:45:27;3.55;;;0.80;;
3465;SDS011;1747;48.884;9.160;2024-03-23T14:47:54;3.08;;;0.90;;
3465;SDS011;1747;48.884;9.160;2024-03-23T14:50:20;3.90;;;0.85;;
3465;SDS011;1747;48.884;9.160;2024-03-23T14:52:48;2.97;;;1.02;;
3465;SDS011;1747;48.884;9.160;2024-03-23T14:55:16;2.55;;;0.80;;
3465;SDS011;1747;48.884;9.160;2024-03-23T14:57:43;2.17;;;0.90;;
3465;SDS011;1747;48.884;9.160;2024-03-23T15:00:09;2.45;;;1.10;;
3465;SDS011;1747;48.884;9.160;2024-03-23T15:02:37;3.67;;;0.90;;
3465;SDS011;1747;48.884;9.160;2024-03-23T15:05:03;2.60;;;1.13;;
3465;SDS011;1747;48.884;9.160;2024-03-23T15:07:34;4.00;;;0.77;;
3465;SDS011;1747;48.884;9.160;2024-03-23T15:10:01;4.65;;;0.80;;
3465;SDS011;1747;48.884;9.160;2024-03-23T15:12:29;3.20;;;0.60;;
3465;SDS011;1747;48.884;9.160;2024-03-23T15:14:58;2.67;;;0.73;;
3465;SDS011;1747;48.884;9.160;2024-03-23T15:17:24;3.70;;;0.70;;
3465;SDS011;1747;48.884;9.160;2024-03-23T15:19:50;2.45;;;1.30;;
3465;SDS011;1747;48.884;9.160;2024-03-23T15:22:18;2.00;;;0.88;;
3465;SDS011;1747;48.884;9.160;2024-03-23T15:24:44;3.22;;;0.95;;
3465;SDS011;1747;48.884;9.160;2024-03-23T15:27:12;1.08;;;0.60;;
3465;SDS011;1747;48.884;9.160;2024-03-23T15:29:38;3.03;;;0.80;;
3465;SDS011;1747;48.884;9.160;2024-03-23T15:32:07;2.53;;;0.60;;
3465;SDS011;1747;48.884;9.160;2024-03-23T15:34:33;1.05;;;0.43;;
3465;SDS011;1747;48.884;9.160;2024-03-23T15:37:00;1.38;;;0.70;;
3465;SDS011;1747;48.884;9.160;2024-03-23T15:39:25;0.85;;;0.60;;
3465;SDS011;1747;48.884;9.160;2024-03-23T15:41:53;1.45;;;0.50;;
3465;SDS011;1747;48.884;9.160;2024-03-23T15:44:21;1.05;;;0.60;;
3465;SDS011;1747;48.884;9.160;2024-03-23T15:46:47;1.08;;;0.60;;
3465;SDS011;1747;48.884;9.160;2024-03-23T15:49:13;1.92;;;0.73;;
3465;SDS011;1747;48.884;9.160;2024-03-23T15:51:40;2.75;;;0.60;;
3465;SDS011;1747;48.884;9.160;2024-03-23T15:54:09;2.08;;;0.70;;
3465;SDS011;1747;48.884;9.160;2024-03-23T15:56:36;2.53;;;0.82;;
3465;SDS011;1747;48.884;9.160;2024-03-23T15:59:01;2.03;;;0.77;;
3465;SDS011;1747;48.884;9.160;2024-03-23T16:01:32;2.47;;;0.70;;
3465;SDS011;1747;48.884;9.160;2024-03-23T16:03:59;2.25;;;0.98;;
3465;SDS011;1747;48.884;9.160;2024-03-23T16:06:25;2.22;;;0.60;;
3465;SDS011;1747;48.884;9.160;2024-03-23T16:08:51;2.58;;;1.45;;
3465;SDS011;1747;48.884;9.160;2024-03-23T16:11:18;4.47;;;1.48;;